Time;durP1;ratioP1;P1;durP2;ratioP2;P2;SDS_P1;SDS_P2;PMS_P1;PMS_P2;Temp;Humidity;BMP_temperature;BMP_pressure;BME280_temperature;BME280_humidity;BME280_pressure;Samples;Min_cycle;Max_cycle;Signal;HPM_P1;HPM_P2
2021/05/08 00:01:16;;;;;;;9.00;4.95;;;;;;;3.97;75.10;101725.22;5288220;28;20020;-66
2021/05/08 00:03:47;;;;;;;11.93;5.25;;;;;;;3.96;75.32;101731.34;5294590;28;20028;-66
2021/05/08 00:06:19;;;;;;;8.02;4.75;;;;;;;4.00;75.20;101726.88;5292319;28;20035;-66
2021/05/08 00:08:50;;;;;;;8.25;4.57;;;;;;;4.00;75.69;101729.47;5304277;28;20027;-66
2021/05/08 00:11:21;;;;;;;7.75;5.25;;;;;;;4.04;75.05;101724.06;5296108;28;20024;-66
2021/05/08 00:13:52;;;;;;;8.18;5.18;;;;;;;4.00;75.24;101725.09;5287567;28;20066;-66
2021/05/08 00:16:24;;;;;;;8.95;5.57;;;;;;;4.02;75.70;101722.47;5298516;28;20028;-66
2021/05/08 00:18:55;;;;;;;10.27;5.60;;;;;;;4.09;75.55;101716.94;5305126;28;20434;-66
2021/05/08 00:21:26;;;;;;;8.77;5.35;;;;;;;4.12;75.22;101713.34;5295329;28;20417;-67
2021/05/08 00:23:57;;;;;;;9.45;5.57;;;;;;;4.21;75.01;101717.31;5293209;28;20046;-67
2021/05/08 00:26:29;;;;;;;10.73;5.85;;;;;;;4.19;75.12;101708.75;5299682;28;20027;-66
2021/05/08 00:29:00;;;;;;;10.20;6.07;;;;;;;4.17;75.19;101702.78;5302466;28;20473;-66
2021/05/08 00:31:33;;;;;;;8.82;5.72;;;;;;;4.20;75.67;101700.06;5301438;28;20034;-67
2021/05/08 00:34:04;;;;;;;8.88;6.07;;;;;;;4.10;75.63;101695.28;5292887;28;20097;-66
2021/05/08 00:36:35;;;;;;;8.95;6.07;;;;;;;4.17;75.49;101695.88;5300119;28;20028;-66
2021/05/08 00:39:06;;;;;;;10.93;6.43;;;;;;;4.19;75.13;101700.97;5284384;28;20107;-66
2021/05/08 00:41:38;;;;;;;10.85;6.22;;;;;;;4.22;75.20;101695.66;5290832;28;20055;-66
2021/05/08 00:44:09;;;;;;;9.98;5.97;;;;;;;4.25;74.43;101692.94;5288055;28;20368;-66
2021/05/08 00:46:41;;;;;;;9.98;6.35;;;;;;;4.28;74.24;101693.63;5288249;27;20481;-67
2021/05/08 00:49:13;;;;;;;9.85;6.57;;;;;;;4.34;74.48;101692.50;5302067;28;20157;-66
2021/05/08 00:51:45;;;;;;;10.80;7.10;;;;;;;4.36;74.50;101690.69;5300633;28;20039;-67
2021/05/08 00:54:16;;;;;;;11.85;6.93;;;;;;;4.42;73.41;101685.22;5289043;28;20484;-67
2021/05/08 00:56:47;;;;;;;10.43;6.78;;;;;;;4.43;73.07;101680.84;5287705;28;20062;-67
2021/05/08 00:59:20;;;;;;;11.95;6.85;;;;;;;4.46;73.33;101676.38;5294529;28;20023;-67
2021/05/08 01:01:51;;;;;;;8.77;6.45;;;;;;;4.55;72.69;101672.53;5281289;28;20078;-67
2021/05/08 01:04:23;;;;;;;9.63;6.60;;;;;;;4.60;73.38;101676.59;5294634;28;20107;-66
2021/05/08 01:06:54;;;;;;;11.40;6.50;;;;;;;4.63;72.88;101673.84;5287857;28;20028;-67
2021/05/08 01:09:25;;;;;;;10.35;6.68;;;;;;;4.71;72.74;101670.91;5290526;28;20024;-66
2021/05/08 01:11:57;;;;;;;14.32;7.10;;;;;;;4.75;71.13;101672.44;5295995;28;20027;-68
2021/05/08 01:14:28;;;;;;;10.57;6.30;;;;;;;4.77;72.23;101673.22;5298850;28;20123;-67
2021/05/08 01:17:00;;;;;;;10.85;6.07;;;;;;;4.78;70.88;101669.69;5291106;28;20020;-66
2021/05/08 01:19:32;;;;;;;10.07;6.00;;;;;;;4.79;70.54;101666.19;5291217;28;20062;-67
2021/05/08 01:22:03;;;;;;;7.40;5.88;;;;;;;4.77;69.77;101662.84;5290506;28;20212;-67
2021/05/08 01:24:35;;;;;;;9.52;5.72;;;;;;;4.77;70.30;101667.16;5296395;28;20469;-67
2021/05/08 01:27:06;;;;;;;8.70;5.70;;;;;;;4.77;70.00;101664.56;5306018;28;20043;-67
2021/05/08 01:29:37;;;;;;;11.75;5.95;;;;;;;4.77;69.18;101661.97;5291738;28;20110;-66
2021/05/08 01:32:09;;;;;;;8.05;5.50;;;;;;;4.73;70.17;101660.44;5291431;28;20028;-67
2021/05/08 01:34:40;;;;;;;8.75;5.55;;;;;;;4.76;70.17;101661.13;5293445;28;20058;-66
2021/05/08 01:37:12;;;;;;;7.97;5.60;;;;;;;4.73;69.11;101650.03;5294103;28;20024;-66
2021/05/08 01:39:43;;;;;;;11.23;5.85;;;;;;;4.74;69.65;101656.94;5305483;28;20535;-67
2021/05/08 01:42:14;;;;;;;8.82;5.63;;;;;;;4.72;69.27;101648.38;5300745;28;20043;-66
2021/05/08 01:44:45;;;;;;;8.35;5.20;;;;;;;4.69;68.59;101643.31;5303553;28;20036;-67
2021/05/08 01:47:17;;;;;;;10.10;5.25;;;;;;;4.71;69.42;101646.69;5297441;28;20044;-67
2021/05/08 01:49:48;;;;;;;9.00;5.53;;;;;;;4.68;69.45;101639.06;5301314;28;20039;-66
2021/05/08 01:52:19;;;;;;;8.85;5.47;;;;;;;4.65;69.45;101634.84;5291562;28;20465;-67
2021/05/08 01:54:50;;;;;;;9.00;5.60;;;;;;;4.64;69.46;101628.81;5288588;28;20109;-67
2021/05/08 01:57:22;;;;;;;9.02;5.40;;;;;;;4.59;69.31;101628.19;5288882;28;20404;-66
2021/05/08 01:59:53;;;;;;;7.57;4.80;;;;;;;4.61;69.01;101639.31;5296790;28;20453;-65
2021/05/08 02:02:24;;;;;;;10.00;5.18;;;;;;;4.63;69.36;101636.69;5304147;28;20468;-66
2021/05/08 02:04:55;;;;;;;10.15;5.40;;;;;;;4.67;68.39;101637.38;5299006;28;20465;-67
2021/05/08 02:07:26;;;;;;;7.60;5.75;;;;;;;4.66;68.33;101630.47;5295149;28;20503;-67
2021/05/08 02:09:58;;;;;;;10.98;5.90;;;;;;;4.71;69.52;101631.13;5298053;28;20473;-66
2021/05/08 02:12:33;;;;;;;12.27;6.13;;;;;;;4.72;69.11;101625.84;5296781;28;20543;-66
2021/05/08 02:15:14;;;;;;;8.68;5.43;;;;;;;4.75;68.46;101620.50;5304208;28;20039;-67
2021/05/08 02:17:46;;;;;;;7.60;5.65;;;;;;;4.72;68.62;101618.06;5295060;28;20066;-66
2021/05/08 02:20:22;;;;;;;12.40;5.95;;;;;;;4.77;67.85;101617.84;5295414;28;20036;-67
2021/05/08 02:22:56;;;;;;;11.15;5.50;;;;;;;4.73;67.64;101613.69;5278946;28;20042;-67
2021/05/08 02:25:28;;;;;;;8.82;5.60;;;;;;;4.69;67.48;101604.38;5289001;28;20395;-67
2021/05/08 02:28:00;;;;;;;10.90;6.73;;;;;;;4.68;67.61;101602.72;5288049;28;20028;-65
2021/05/08 02:30:37;;;;;;;11.07;6.25;;;;;;;4.68;66.75;101593.16;5276432;28;20047;-67
2021/05/08 02:33:09;;;;;;;13.20;6.38;;;;;;;4.65;67.69;101598.50;5295290;28;20111;-66
2021/05/08 02:35:40;;;;;;;10.60;6.30;;;;;;;4.64;67.67;101594.22;5290463;28;20039;-67
2021/05/08 02:38:11;;;;;;;7.82;5.10;;;;;;;4.62;66.58;101591.72;5288337;28;20081;-67
2021/05/08 02:40:43;;;;;;;8.43;5.38;;;;;;;4.62;67.14;101591.72;5292352;28;20121;-66
2021/05/08 02:43:14;;;;;;;11.10;6.43;;;;;;;4.58;67.52;101577.22;5289440;28;20104;-66
2021/05/08 02:45:45;;;;;;;8.10;5.25;;;;;;;4.58;66.69;101578.94;5290706;28;20887;-66
2021/05/08 02:48:17;;;;;;;8.07;5.20;;;;;;;4.61;66.74;101578.81;5300036;28;20793;-66
2021/05/08 02:50:48;;;;;;;7.00;4.82;;;;;;;4.56;66.45;101579.03;5291968;28;20060;-66
2021/05/08 02:53:19;;;;;;;8.98;5.07;;;;;;;4.57;66.01;101567.72;5297943;28;20028;-67
2021/05/08 02:55:50;;;;;;;7.70;5.40;;;;;;;4.57;65.69;101580.69;5298891;28;20038;-66
2021/05/08 02:58:22;;;;;;;7.65;5.68;;;;;;;4.56;66.56;101571.25;5303542;28;20034;-67
2021/05/08 03:00:53;;;;;;;7.80;5.38;;;;;;;4.55;66.13;101566.97;5295497;28;20078;-66
2021/05/08 03:03:24;;;;;;;7.25;5.88;;;;;;;4.50;66.63;101557.72;5295306;28;20024;-67
2021/05/08 03:05:55;;;;;;;7.47;5.50;;;;;;;4.51;67.36;101549.00;5294525;28;20104;-66
2021/05/08 03:08:27;;;;;;;7.88;6.25;;;;;;;4.51;67.05;101538.63;5296081;28;20023;-66
2021/05/08 03:10:58;;;;;;;8.43;6.40;;;;;;;4.54;66.59;101541.06;5294250;28;20123;-66
2021/05/08 03:13:29;;;;;;;8.30;5.60;;;;;;;4.62;65.01;101538.94;5293954;28;20106;-66
2021/05/08 03:16:01;;;;;;;9.27;6.20;;;;;;;4.64;65.97;101545.75;5288653;28;20291;-67
2021/05/08 03:18:32;;;;;;;8.77;6.90;;;;;;;4.74;64.49;101540.13;5294466;28;20039;-66
2021/05/08 03:21:03;;;;;;;6.88;5.30;;;;;;;4.76;64.38;101531.34;5288341;28;20049;-66
2021/05/08 03:23:35;;;;;;;8.68;5.78;;;;;;;4.81;64.37;101542.34;5295913;28;20023;-66
2021/05/08 03:26:06;;;;;;;9.13;6.38;;;;;;;4.88;65.07;101542.88;5298902;28;20070;-67
2021/05/08 03:28:37;;;;;;;8.25;6.07;;;;;;;4.96;63.75;101532.09;5289596;28;20192;-67
2021/05/08 03:31:08;;;;;;;7.90;5.78;;;;;;;4.97;63.55;101528.59;5292141;28;20093;-67
2021/05/08 03:33:40;;;;;;;12.27;6.70;;;;;;;5.10;63.00;101525.28;5293383;28;20032;-67
2021/05/08 03:36:11;;;;;;;8.77;5.80;;;;;;;5.17;63.00;101532.78;5298616;28;20028;-66
2021/05/08 03:38:42;;;;;;;8.30;5.90;;;;;;;5.20;63.22;101520.47;5289155;28;20024;-67
2021/05/08 03:41:14;;;;;;;9.23;5.80;;;;;;;5.25;63.50;101525.44;5288533;28;20043;-66
2021/05/08 03:43:45;;;;;;;7.05;6.13;;;;;;;5.24;63.44;101522.00;5288145;28;20275;-67
2021/05/08 03:46:16;;;;;;;8.52;6.10;;;;;;;5.30;62.98;101518.22;5274137;28;20028;-66
2021/05/08 03:48:48;;;;;;;9.40;7.05;;;;;;;5.30;63.09;101513.03;5302631;28;20054;-67
2021/05/08 03:51:23;;;;;;;7.78;6.38;;;;;;;5.24;63.21;101502.97;5295575;28;20031;-67
2021/05/08 03:53:55;;;;;;;10.13;7.03;;;;;;;5.26;63.18;101508.91;5290577;28;20192;-67
2021/05/08 03:56:26;;;;;;;10.30;6.53;;;;;;;5.32;62.53;101511.19;5304024;28;20534;-68
2021/05/08 03:58:57;;;;;;;11.15;6.68;;;;;;;5.30;62.90;101506.09;5297684;28;20088;-67
2021/05/08 04:01:29;;;;;;;9.15;6.50;;;;;;;5.35;62.73;101505.84;5283978;28;20118;-67
2021/05/08 04:04:00;;;;;;;9.52;6.93;;;;;;;5.33;62.74;101505.91;5290188;28;20507;-67
2021/05/08 04:06:31;;;;;;;7.72;6.60;;;;;;;5.39;62.02;101501.34;5293031;28;20896;-67
2021/05/08 04:09:07;;;;;;;8.95;6.80;;;;;;;5.42;62.56;101507.22;5290648;28;20078;-66
2021/05/08 04:11:38;;;;;;;10.57;6.88;;;;;;;5.47;62.35;101496.56;5280849;28;20039;-67
2021/05/08 04:14:10;;;;;;;9.75;7.15;;;;;;;5.48;62.06;101499.06;5277650;28;20274;-67
2021/05/08 04:16:41;;;;;;;11.75;7.13;;;;;;;5.51;62.67;101496.31;5287829;28;20051;-67
2021/05/08 04:19:12;;;;;;;9.48;6.65;;;;;;;5.56;62.09;101499.50;5287195;28;20093;-66
2021/05/08 04:21:43;;;;;;;8.23;7.10;;;;;;;5.59;62.70;101494.16;5297220;28;20309;-66
2021/05/08 04:24:15;;;;;;;11.80;7.70;;;;;;;5.59;62.37;101494.16;5299690;28;20043;-66
2021/05/08 04:26:46;;;;;;;10.93;8.07;;;;;;;5.67;62.12;101492.91;5293978;28;20036;-66
2021/05/08 04:29:18;;;;;;;8.95;7.60;;;;;;;5.69;63.11;101494.50;5288116;28;20028;-68
2021/05/08 04:31:49;;;;;;;9.30;7.55;;;;;;;5.71;62.35;101497.84;5295318;28;20024;-66
2021/05/08 04:34:21;;;;;;;10.05;8.32;;;;;;;5.75;62.03;101494.16;5297593;28;20028;-68
2021/05/08 04:36:52;;;;;;;12.35;8.43;;;;;;;5.78;62.80;101493.16;5287642;28;20031;-67
2021/05/08 04:39:24;;;;;;;10.48;8.07;;;;;;;5.79;62.12;101487.88;5292436;28;20020;-66
2021/05/08 04:41:56;;;;;;;12.30;8.85;;;;;;;5.84;61.95;101487.63;5288001;28;20060;-68
2021/05/08 04:44:27;;;;;;;9.88;8.07;;;;;;;5.84;63.01;101493.66;5291472;28;20111;-67
2021/05/08 04:46:58;;;;;;;11.75;8.10;;;;;;;5.87;62.76;101482.25;5295546;28;20103;-66
2021/05/08 04:49:30;;;;;;;11.90;8.15;;;;;;;5.89;63.27;101471.78;5296110;28;20036;-68
2021/05/08 04:52:01;;;;;;;11.98;8.85;;;;;;;5.92;63.02;101475.06;5295744;28;20043;-68
2021/05/08 04:54:33;;;;;;;16.42;8.60;;;;;;;5.94;62.66;101469.78;5301019;28;20023;-67
2021/05/08 04:57:04;;;;;;;10.98;7.93;;;;;;;6.01;63.15;101464.16;5290974;28;20121;-67
2021/05/08 04:59:35;;;;;;;13.43;9.40;;;;;;;6.05;62.68;101468.25;5297099;28;20032;-67
2021/05/08 05:02:07;;;;;;;11.13;8.35;;;;;;;6.09;62.39;101476.72;5300876;28;20023;-68
2021/05/08 05:04:38;;;;;;;12.80;8.77;;;;;;;6.13;62.83;101464.38;5284059;28;20028;-67
2021/05/08 05:07:09;;;;;;;10.30;8.43;;;;;;;6.17;62.05;101463.28;5291853;28;20023;-67
2021/05/08 05:09:41;;;;;;;13.27;8.38;;;;;;;6.21;62.32;101464.78;5295423;28;20324;-67
2021/05/08 05:12:12;;;;;;;12.55;9.00;;;;;;;6.22;61.59;101459.53;5296383;28;20042;-67
2021/05/08 05:14:43;;;;;;;13.50;8.60;;;;;;;6.26;62.54;101455.81;5298441;28;20393;-68
2021/05/08 05:17:14;;;;;;;13.80;8.60;;;;;;;6.30;61.51;101461.69;5300695;28;20122;-68
2021/05/08 05:19:46;;;;;;;13.30;8.15;;;;;;;6.34;61.68;101460.59;5296072;28;20028;-68
2021/05/08 05:22:17;;;;;;;12.68;8.27;;;;;;;6.38;61.47;101469.88;5296378;28;20015;-67
2021/05/08 05:24:48;;;;;;;14.25;8.45;;;;;;;6.41;60.92;101467.13;5290188;28;20039;-67
2021/05/08 05:27:19;;;;;;;10.32;8.20;;;;;;;6.48;60.89;101476.25;5296372;28;20034;-68
2021/05/08 05:29:51;;;;;;;12.35;8.35;;;;;;;6.53;60.59;101466.41;5290650;28;20052;-68
2021/05/08 05:32:22;;;;;;;10.73;7.90;;;;;;;6.58;61.00;101464.34;5290018;28;20038;-68
2021/05/08 05:34:54;;;;;;;10.25;7.95;;;;;;;6.65;60.66;101474.44;5279049;28;20132;-67
2021/05/08 05:37:25;;;;;;;12.43;8.00;;;;;;;6.70;60.18;101470.63;5295734;28;20035;-67
2021/05/08 05:39:56;;;;;;;10.93;8.02;;;;;;;6.78;60.23;101472.78;5297759;28;20027;-68
2021/05/08 05:42:28;;;;;;;10.77;8.68;;;;;;;6.85;60.44;101476.69;5293105;28;20072;-68
2021/05/08 05:44:59;;;;;;;10.70;7.70;;;;;;;6.94;59.23;101477.94;5295145;28;20058;-68
2021/05/08 05:47:32;;;;;;;12.38;7.85;;;;;;;7.05;60.16;101486.78;5294903;28;20121;-68
2021/05/08 05:50:03;;;;;;;11.60;8.00;;;;;;;7.17;59.16;101485.22;5302833;28;20032;-68
2021/05/08 05:52:35;;;;;;;9.52;7.70;;;;;;;7.32;58.83;101489.50;5290704;28;20562;-67
2021/05/08 05:55:06;;;;;;;10.18;7.75;;;;;;;7.44;59.01;101484.47;5294456;28;20031;-68
2021/05/08 05:57:37;;;;;;;9.70;7.15;;;;;;;7.56;57.31;101481.94;5290439;28;20051;-67
2021/05/08 06:00:09;;;;;;;10.00;6.35;;;;;;;7.65;57.40;101482.28;5305282;28;20027;-68
2021/05/08 06:02:41;;;;;;;9.27;6.03;;;;;;;7.72;56.93;101484.41;5283810;28;20481;-67
2021/05/08 06:05:12;;;;;;;8.68;6.10;;;;;;;7.82;56.79;101476.03;5289804;28;20072;-68
2021/05/08 06:07:44;;;;;;;10.05;5.90;;;;;;;7.89;56.07;101478.16;5301477;28;20043;-67
2021/05/08 06:10:15;;;;;;;12.15;6.78;;;;;;;7.98;55.93;101468.88;5296052;28;20039;-68
2021/05/08 06:12:46;;;;;;;8.43;6.05;;;;;;;8.07;55.92;101460.50;5294790;28;20032;-67
2021/05/08 06:15:18;;;;;;;10.88;7.18;;;;;;;8.04;55.21;101445.84;5288900;28;20035;-67
2021/05/08 06:17:50;;;;;;;9.45;6.38;;;;;;;8.25;55.98;101463.66;5289535;28;20020;-66
2021/05/08 06:20:21;;;;;;;8.43;6.45;;;;;;;8.31;55.68;101463.28;5293261;28;20496;-67
2021/05/08 06:22:53;;;;;;;8.18;6.20;;;;;;;8.35;55.28;101456.06;5292206;28;20016;-68
2021/05/08 06:25:24;;;;;;;8.77;5.75;;;;;;;8.36;54.79;101463.81;5294171;28;20432;-66
2021/05/08 06:27:56;;;;;;;8.38;6.03;;;;;;;8.38;55.15;101454.13;5287517;28;20566;-67
2021/05/08 06:30:27;;;;;;;8.35;6.30;;;;;;;8.39;54.80;101453.19;5294342;28;20031;-67
2021/05/08 06:32:58;;;;;;;10.60;6.22;;;;;;;8.42;55.22;101450.38;5288683;28;20028;-68
2021/05/08 06:35:30;;;;;;;10.45;6.00;;;;;;;8.43;55.35;101444.22;5292757;28;20024;-67
2021/05/08 06:38:01;;;;;;;9.27;6.15;;;;;;;8.43;55.35;101441.59;5292567;28;20058;-67
2021/05/08 06:40:32;;;;;;;10.45;6.70;;;;;;;8.41;55.50;101443.50;5294337;28;20111;-67
2021/05/08 06:43:03;;;;;;;8.20;6.05;;;;;;;8.44;55.98;101451.09;5288876;28;20367;-67
2021/05/08 06:45:35;;;;;;;9.52;6.05;;;;;;;8.46;56.02;101437.97;5288044;28;20125;-68
2021/05/08 06:48:07;;;;;;;10.40;6.60;;;;;;;8.49;55.85;101433.38;5289214;28;20382;-68
2021/05/08 06:50:39;;;;;;;9.55;6.65;;;;;;;8.51;55.95;101428.88;5288784;28;20043;-67
2021/05/08 06:53:10;;;;;;;7.43;6.10;;;;;;;8.58;56.21;101431.91;5288253;28;20089;-67
2021/05/08 06:55:41;;;;;;;7.38;6.07;;;;;;;8.61;56.07;101429.09;5294006;28;20031;-67
2021/05/08 06:58:12;;;;;;;8.52;5.80;;;;;;;8.70;56.31;101435.47;5288631;28;20020;-67
2021/05/08 07:00:44;;;;;;;7.88;5.75;;;;;;;8.77;55.89;101421.91;5288112;28;20077;-68
2021/05/08 07:03:15;;;;;;;12.57;6.13;;;;;;;8.82;55.88;101425.97;5293389;28;20077;-68
2021/05/08 07:05:46;;;;;;;8.57;5.57;;;;;;;8.88;55.74;101434.25;5296043;28;20053;-67
2021/05/08 07:08:19;;;;;;;7.85;5.50;;;;;;;8.89;55.45;101425.44;5291117;28;20023;-67
2021/05/08 07:10:52;;;;;;;7.75;5.60;;;;;;;8.92;55.14;101422.63;5287902;28;20036;-67
2021/05/08 07:13:23;;;;;;;9.10;5.73;;;;;;;9.02;55.62;101426.28;5288238;28;20106;-67
2021/05/08 07:15:56;;;;;;;9.18;5.63;;;;;;;9.11;55.77;101426.59;5293048;28;20024;-66
2021/05/08 07:18:27;;;;;;;9.57;5.68;;;;;;;9.20;55.27;101418.09;5295591;28;20038;-68
2021/05/08 07:20:58;;;;;;;8.93;5.10;;;;;;;9.29;54.73;101420.09;5300520;28;20031;-67
2021/05/08 07:23:30;;;;;;;8.00;5.10;;;;;;;9.39;55.06;101418.47;5295687;28;20405;-67
2021/05/08 07:26:01;;;;;;;10.25;5.65;;;;;;;9.47;54.93;101415.31;5298024;28;20039;-67
2021/05/08 07:28:32;;;;;;;5.57;4.55;;;;;;;9.53;55.17;101411.44;5288804;28;20047;-68
2021/05/08 07:31:04;;;;;;;6.90;5.13;;;;;;;9.58;54.43;101410.16;5276207;28;20084;-67
2021/05/08 07:33:35;;;;;;;6.22;4.97;;;;;;;9.70;54.28;101411.09;5289074;28;20027;-66
2021/05/08 07:36:06;;;;;;;9.88;5.50;;;;;;;9.72;54.43;101401.31;5293370;28;20482;-68
2021/05/08 07:38:38;;;;;;;8.68;5.47;;;;;;;9.74;53.96;101400.28;5295807;28;20389;-68
2021/05/08 07:41:09;;;;;;;8.25;4.97;;;;;;;9.85;53.97;101399.50;5286522;28;20051;-67
2021/05/08 07:43:40;;;;;;;7.28;4.85;;;;;;;9.92;53.95;101395.47;5288227;28;20034;-67
2021/05/08 07:46:12;;;;;;;8.05;4.78;;;;;;;10.04;53.61;101400.75;5298352;28;20472;-67
2021/05/08 07:48:43;;;;;;;10.00;4.60;;;;;;;10.12;52.38;101395.81;5301891;28;20059;-67
2021/05/08 07:51:15;;;;;;;6.25;4.38;;;;;;;10.19;52.30;101391.75;5289333;28;20050;-68
2021/05/08 07:53:46;;;;;;;6.25;4.63;;;;;;;10.27;51.90;101383.41;5295080;28;20054;-68
2021/05/08 07:56:17;;;;;;;6.82;4.65;;;;;;;10.33;51.89;101375.88;5288005;28;20028;-66
2021/05/08 07:58:49;;;;;;;9.70;4.85;;;;;;;10.48;51.86;101374.72;5287567;28;20043;-66
2021/05/08 08:01:21;;;;;;;7.03;4.72;;;;;;;10.60;51.33;101377.38;5299949;28;20028;-67
2021/05/08 08:03:52;;;;;;;8.30;4.15;;;;;;;10.66;51.56;101363.81;5298769;28;20101;-67
2021/05/08 08:06:24;;;;;;;9.02;4.60;;;;;;;10.76;51.58;101353.44;5286880;28;20603;-67
2021/05/08 08:08:55;;;;;;;8.18;4.57;;;;;;;10.76;50.99;101362.16;5286908;28;20035;-65
2021/05/08 08:11:26;;;;;;;6.97;4.35;;;;;;;10.75;50.55;101347.38;5288059;28;20028;-66
2021/05/08 08:13:58;;;;;;;7.05;4.43;;;;;;;10.81;50.03;101352.13;5298003;28;20035;-66
2021/05/08 08:16:30;;;;;;;7.10;4.38;;;;;;;10.94;50.35;101349.38;5267327;28;20036;-67
2021/05/08 08:19:01;;;;;;;8.88;4.57;;;;;;;11.02;49.96;101348.78;5287526;28;20472;-66
2021/05/08 08:21:32;;;;;;;9.73;3.85;;;;;;;11.13;49.36;101354.84;5295271;28;20023;-67
2021/05/08 08:24:04;;;;;;;4.95;3.47;;;;;;;11.26;50.09;101348.66;5290163;28;20033;-66
2021/05/08 08:26:36;;;;;;;6.97;4.22;;;;;;;11.47;49.44;101346.91;5294250;28;20027;-66
2021/05/08 08:29:07;;;;;;;7.97;4.10;;;;;;;11.56;48.59;101343.56;5294357;28;20384;-66
2021/05/08 08:31:39;;;;;;;7.07;4.53;;;;;;;11.72;48.64;101344.94;5292458;28;20027;-66
2021/05/08 08:34:10;;;;;;;7.43;4.32;;;;;;;11.88;48.13;101333.06;5291429;28;20389;-67
2021/05/08 08:36:42;;;;;;;7.05;4.63;;;;;;;12.11;47.87;101330.34;5293088;28;20524;-66
2021/05/08 08:39:13;;;;;;;8.55;4.30;;;;;;;12.33;46.51;101334.63;5292763;28;20032;-67
2021/05/08 08:41:44;;;;;;;9.52;4.40;;;;;;;12.38;45.80;101328.00;5297953;28;20771;-67
2021/05/08 08:44:16;;;;;;;6.40;3.90;;;;;;;12.70;45.50;101327.06;5300587;28;20479;-68
2021/05/08 08:46:47;;;;;;;5.68;3.55;;;;;;;12.76;45.30;101323.91;5295806;28;20030;-66
2021/05/08 08:49:18;;;;;;;4.68;3.25;;;;;;;12.86;44.34;101324.78;5289876;28;20154;-67
2021/05/08 08:51:50;;;;;;;5.85;3.22;;;;;;;12.94;44.05;101323.28;5289267;28;20024;-67
2021/05/08 08:54:21;;;;;;;5.65;3.30;;;;;;;12.94;42.62;101320.66;5294011;28;20508;-68
2021/05/08 08:56:53;;;;;;;9.38;3.30;;;;;;;13.10;43.92;101318.34;5290110;28;20115;-66
2021/05/08 09:01:56;;;;;;;6.50;3.50;;;;;;;13.21;42.97;101312.13;5302063;28;20035;-66
2021/05/08 09:04:27;;;;;;;6.95;3.22;;;;;;;13.35;43.80;101298.63;5288203;28;20031;-65
2021/05/08 09:06:59;;;;;;;7.13;2.88;;;;;;;13.36;41.87;101285.31;5302245;28;20039;-65
2021/05/08 09:09:31;;;;;;;6.75;3.30;;;;;;;13.44;41.97;101282.00;5291223;28;20055;-66
2021/05/08 09:12:02;;;;;;;6.63;2.88;;;;;;;13.46;41.62;101290.59;5294687;28;20439;-65
2021/05/08 09:14:34;;;;;;;5.18;2.92;;;;;;;13.54;42.47;101288.09;5290945;28;20031;-68
2021/05/08 09:17:11;;;;;;;5.13;3.00;;;;;;;13.59;42.18;101282.41;5293115;28;20031;-69
2021/05/08 09:20:02;;;;;;;5.85;3.10;;;;;;;13.57;42.08;101290.47;5292099;28;20081;-68
2021/05/08 09:22:36;;;;;;;7.15;3.10;;;;;;;13.48;41.36;101286.00;5296458;28;20111;-71
2021/05/08 09:25:15;;;;;;;4.15;2.78;;;;;;;13.51;42.21;101290.16;5289066;28;20035;-68
2021/05/08 09:27:57;;;;;;;5.40;2.95;;;;;;;13.60;42.71;101290.19;5301844;28;20442;-67
2021/05/08 09:30:29;;;;;;;5.32;2.83;;;;;;;13.57;42.19;101287.00;5289047;28;20032;-68
2021/05/08 09:33:02;;;;;;;4.85;2.92;;;;;;;13.56;42.73;101280.91;5290933;28;20054;-70
2021/05/08 09:35:35;;;;;;;7.30;3.40;;;;;;;13.69;42.72;101285.06;5296315;28;20026;-69
2021/05/08 09:38:12;;;;;;;5.00;2.40;;;;;;;13.77;42.36;101282.53;5292663;28;20046;-67
2021/05/08 09:40:45;;;;;;;3.92;2.30;;;;;;;13.88;42.75;101279.75;5288936;28;20497;-68
2021/05/08 09:43:20;;;;;;;4.97;2.55;;;;;;;13.81;42.37;101271.59;5290109;28;20047;-67
2021/05/08 09:45:53;;;;;;;4.45;2.60;;;;;;;13.80;42.47;101269.09;5294007;28;20032;-66
2021/05/08 09:48:35;;;;;;;4.15;2.33;;;;;;;13.95;43.77;101274.75;5300139;27;20960;-66
2021/05/08 09:51:26;;;;;;;5.83;2.43;;;;;;;13.85;42.98;101275.59;5289562;28;20070;-66
2021/05/08 09:54:10;;;;;;;4.55;2.42;;;;;;;13.82;43.83;101275.88;5281713;28;20278;-67
2021/05/08 09:56:43;;;;;;;4.05;2.15;;;;;;;13.75;46.45;101264.25;5290398;28;20476;-66
2021/05/08 09:59:33;;;;;;;4.07;2.30;;;;;;;13.81;46.74;101276.84;5297328;28;20061;-69
2021/05/08 10:02:05;;;;;;;6.35;2.22;;;;;;;13.62;46.94;101268.97;5288379;28;20024;-66
2021/05/08 10:04:45;;;;;;;2.80;1.90;;;;;;;13.59;46.72;101275.34;5298775;28;20042;-69
2021/05/08 10:07:17;;;;;;;6.93;2.50;;;;;;;13.55;47.89;101267.84;5286214;28;20032;-67
2021/05/08 10:09:51;;;;;;;4.38;1.80;;;;;;;13.51;49.29;101274.38;5281954;28;20028;-66
2021/05/08 10:12:25;;;;;;;3.25;1.90;;;;;;;13.43;50.19;101272.44;5296537;28;20032;-69
2021/05/08 10:14:58;;;;;;;5.07;2.03;;;;;;;13.29;50.36;101260.50;5287621;28;20032;-68
2021/05/08 10:17:30;;;;;;;4.72;2.05;;;;;;;13.24;51.04;101257.47;5299089;28;20055;-67
2021/05/08 10:20:08;;;;;;;4.18;1.92;;;;;;;13.18;51.22;101259.78;5295664;28;20028;-66
2021/05/08 10:22:48;;;;;;;3.92;1.83;;;;;;;13.14;51.34;101254.81;5274161;28;20417;-66
2021/05/08 10:25:19;;;;;;;4.22;1.80;;;;;;;12.98;51.69;101240.50;5286643;28;20068;-67
2021/05/08 10:27:51;;;;;;;4.63;2.25;;;;;;;13.07;53.96;101242.34;5288222;28;20202;-68
2021/05/08 10:30:35;;;;;;;3.28;1.92;;;;;;;13.06;53.57;101230.13;5289920;28;20461;-67
2021/05/08 10:33:09;;;;;;;3.88;2.10;;;;;;;13.12;53.65;101234.84;5300618;28;20027;-66
2021/05/08 10:35:44;;;;;;;;;;;;;;;13.27;52.76;101238.78;5293589;28;20028;-67
2021/05/08 10:38:21;;;;;;;3.70;1.88;;;;;;;13.06;54.69;101230.97;5295346;28;20293;-66
2021/05/08 10:41:06;;;;;;;3.30;2.00;;;;;;;13.11;55.81;101230.56;5291071;28;20313;-66
2021/05/08 10:43:57;;;;;;;5.13;2.08;;;;;;;13.10;57.27;101228.88;5293459;28;20960;-66
2021/05/08 10:46:51;;;;;;;3.75;1.98;;;;;;;13.04;55.19;101213.69;5293969;28;20109;-66
2021/05/08 10:49:23;;;;;;;5.75;2.33;;;;;;;12.94;56.23;101205.75;5293432;28;20093;-66
2021/05/08 10:51:54;;;;;;;3.38;2.10;;;;;;;12.82;56.46;101196.34;5289354;28;20142;-66
2021/05/08 10:57:16;;;;;;;2.65;1.90;;;;;;;12.80;57.22;101183.31;5298478;28;20081;-67
2021/05/08 11:00:08;;;;;;;4.72;2.28;;;;;;;12.79;56.91;101178.19;5299794;28;20758;-69
2021/05/08 11:02:45;;;;;;;4.20;2.20;;;;;;;12.64;57.01;101170.69;5271665;28;20054;-67
2021/05/08 11:05:36;;;;;;;3.35;2.10;;;;;;;12.59;56.54;101161.56;5293861;28;20024;-67
2021/05/08 11:08:25;;;;;;;2.95;1.85;;;;;;;12.64;57.18;101154.94;5291731;28;20093;-67
2021/05/08 11:11:00;;;;;;;3.17;1.70;;;;;;;12.58;59.48;101152.03;5284673;28;20055;-66
2021/05/08 11:13:41;;;;;;;3.60;1.67;;;;;;;12.59;59.84;101149.25;5280735;28;20107;-65
2021/05/08 11:16:19;;;;;;;3.20;2.05;;;;;;;12.46;60.23;101143.41;5279570;28;20046;-66
2021/05/08 11:18:55;;;;;;;2.65;1.70;;;;;;;12.32;59.70;101149.88;5291713;28;20028;-66
2021/05/08 11:21:30;;;;;;;3.67;1.67;;;;;;;12.28;58.80;101134.53;5299542;28;20052;-66
2021/05/08 11:24:02;;;;;;;3.13;1.85;;;;;;;12.21;59.78;101134.22;5287599;28;20092;-66
2021/05/08 11:26:37;;;;;;;2.75;1.88;;;;;;;12.10;62.03;101134.31;5292505;28;20046;-68
2021/05/08 11:29:11;;;;;;;3.25;1.90;;;;;;;12.21;62.75;101128.97;5289742;28;20056;-67
2021/05/08 11:31:46;;;;;;;3.63;2.20;;;;;;;12.18;63.30;101130.06;5291188;28;20435;-66
2021/05/08 11:34:23;;;;;;;3.20;2.00;;;;;;;12.21;61.20;101118.47;5289730;28;20420;-66
2021/05/08 11:37:07;;;;;;;2.80;1.85;;;;;;;12.15;62.65;101103.22;5286059;28;20043;-67
2021/05/08 11:39:43;;;;;;;2.67;1.35;;;;;;;12.10;61.77;101102.81;5291839;28;20027;-67
2021/05/08 11:42:18;;;;;;;4.30;2.13;;;;;;;12.01;63.35;101101.81;5287380;28;20016;-65
2021/05/08 11:44:58;;;;;;;3.53;2.00;;;;;;;12.00;62.44;101100.13;5270007;28;20027;-68
2021/05/08 11:47:34;;;;;;;3.72;1.90;;;;;;;11.94;63.83;101100.69;5286848;28;20253;-66
2021/05/08 11:50:12;;;;;;;4.45;1.90;;;;;;;12.13;65.96;101092.03;5289764;28;20024;-65
2021/05/08 11:52:52;;;;;;;3.30;2.15;;;;;;;12.10;64.12;101094.94;5290132;28;20036;-66
2021/05/08 11:55:26;;;;;;;6.65;2.28;;;;;;;12.05;63.07;101105.84;5298083;28;20039;-66
2021/05/08 11:57:59;;;;;;;3.88;2.10;;;;;;;11.97;64.30;101104.81;5285320;28;20269;-66
2021/05/08 12:00:32;;;;;;;4.55;2.53;;;;;;;11.99;64.80;101093.22;5292635;28;20028;-65